createdAt,value
2018-11-28T00:00:31.966Z,4.30
2018-11-28T00:03:02.398Z,4.30
2018-11-28T00:05:31.025Z,4.30
2018-11-28T00:07:59.311Z,4.30
2018-11-28T00:10:27.081Z,4.20
2018-11-28T00:12:55.516Z,4.10
2018-11-28T00:15:23.257Z,4.10
2018-11-28T00:17:51.119Z,4.10
2018-11-28T00:20:21.369Z,4.10
2018-11-28T00:22:49.388Z,4.10
2018-11-28T00:25:17.617Z,4.10
2018-11-28T00:27:45.503Z,4.10
2018-11-28T00:30:14.511Z,4.10
2018-11-28T00:32:42.617Z,4.10
2018-11-28T00:35:12.688Z,4.00
2018-11-28T00:37:40.754Z,3.80
2018-11-28T00:40:10.210Z,3.60
2018-11-28T00:42:38.796Z,3.60
2018-11-28T00:45:09.516Z,3.50
2018-11-28T00:47:37.322Z,3.50
2018-11-28T00:50:09.079Z,3.50
2018-11-28T00:52:37.292Z,3.50
2018-11-28T00:55:06.748Z,3.50
2018-11-28T00:57:34.468Z,3.40
2018-11-28T01:00:02.335Z,3.30
2018-11-28T01:02:29.957Z,3.20
2018-11-28T01:04:57.652Z,3.20
2018-11-28T01:07:25.365Z,3.10
2018-11-28T01:09:53.055Z,3.00
2018-11-28T01:12:21.189Z,3.00
2018-11-28T01:14:48.906Z,3.10
2018-11-28T01:17:16.699Z,3.10
2018-11-28T01:19:44.496Z,3.10
2018-11-28T01:22:12.184Z,3.10
2018-11-28T01:24:39.826Z,3.00
2018-11-28T01:27:07.590Z,3.00
2018-11-28T01:29:35.227Z,3.00
2018-11-28T01:32:04.226Z,3.00
2018-11-28T01:34:32.439Z,3.10
2018-11-28T01:37:00.242Z,3.10
2018-11-28T01:39:28.008Z,3.00
2018-11-28T01:41:55.599Z,2.90
2018-11-28T01:44:23.271Z,2.80
2018-11-28T01:46:50.961Z,2.80
2018-11-28T01:49:18.804Z,2.80
2018-11-28T01:51:46.387Z,2.70
2018-11-28T01:54:14.188Z,2.70
2018-11-28T01:56:41.861Z,2.70
2018-11-28T01:59:09.607Z,2.80
2018-11-28T02:01:38.534Z,2.70
2018-11-28T02:04:06.828Z,2.90
2018-11-28T02:06:34.620Z,3.10
2018-11-28T02:09:02.952Z,3.40
2018-11-28T02:11:30.607Z,3.50
2018-11-28T02:13:58.326Z,3.60
2018-11-28T02:16:27.164Z,3.60
2018-11-28T02:18:54.892Z,3.70
2018-11-28T02:21:22.647Z,3.60
2018-11-28T02:23:50.391Z,3.70
2018-11-28T02:26:17.991Z,3.80
2018-11-28T02:28:46.271Z,3.80
2018-11-28T02:31:14.488Z,3.80
2018-11-28T02:33:43.502Z,3.80
2018-11-28T02:36:11.745Z,3.80
2018-11-28T02:38:39.459Z,3.80
2018-11-28T02:41:07.880Z,3.80
2018-11-28T02:43:35.645Z,3.80
2018-11-28T02:46:14.716Z,3.80
2018-11-28T02:48:42.489Z,3.80
2018-11-28T02:51:10.480Z,3.80
2018-11-28T02:53:38.245Z,3.80
2018-11-28T02:56:06.052Z,3.80
2018-11-28T02:58:33.948Z,3.80
2018-11-28T03:01:02.367Z,3.80
2018-11-28T03:03:30.111Z,3.90
2018-11-28T03:05:58.050Z,3.90
2018-11-28T03:08:25.668Z,3.90
2018-11-28T03:10:53.440Z,3.90
2018-11-28T03:13:21.062Z,3.90
2018-11-28T03:15:48.870Z,3.80
2018-11-28T03:18:18.029Z,3.80
2018-11-28T03:20:45.785Z,3.90
2018-11-28T03:23:13.488Z,3.90
2018-11-28T03:25:41.218Z,3.90
2018-11-28T03:28:09.252Z,3.90
2018-11-28T03:30:36.805Z,3.90
2018-11-28T03:33:04.756Z,3.90
2018-11-28T03:35:32.351Z,3.90
2018-11-28T03:38:00.047Z,3.90
2018-11-28T03:42:57.261Z,3.90
2018-11-28T03:45:25.395Z,3.90
2018-11-28T03:47:53.035Z,3.90
2018-11-28T03:50:20.872Z,3.90
2018-11-28T03:52:48.723Z,3.90
2018-11-28T03:55:16.414Z,3.90
2018-11-28T03:57:45.463Z,3.90
2018-11-28T04:00:16.490Z,3.90
2018-11-28T04:02:44.116Z,3.90
2018-11-28T04:05:12.457Z,3.90
2018-11-28T04:07:40.341Z,3.90
2018-11-28T04:10:11.157Z,3.90
2018-11-28T04:12:39.639Z,3.80
2018-11-28T04:15:13.413Z,3.90
2018-11-28T04:17:41.056Z,3.90
2018-11-28T04:20:12.006Z,3.90
2018-11-28T04:22:40.224Z,3.90
2018-11-28T04:25:09.219Z,3.90
2018-11-28T04:27:36.907Z,3.80
2018-11-28T04:30:09.512Z,3.80
2018-11-28T04:32:37.906Z,3.90
2018-11-28T04:35:07.531Z,3.80
2018-11-28T04:37:35.099Z,3.80
2018-11-28T04:40:03.199Z,3.80
2018-11-28T04:42:30.965Z,3.80
2018-11-28T04:44:58.591Z,3.80
2018-11-28T04:47:26.241Z,3.80
2018-11-28T04:49:55.244Z,3.80
2018-11-28T04:52:23.626Z,3.80
2018-11-28T04:54:51.320Z,3.90
2018-11-28T04:57:19.023Z,3.90
2018-11-28T04:59:46.633Z,3.90
2018-11-28T05:02:14.293Z,4.00
2018-11-28T05:04:41.931Z,3.90
2018-11-28T05:07:25.808Z,3.90
2018-11-28T05:09:53.723Z,3.80
2018-11-28T05:12:21.768Z,3.80
2018-11-28T05:14:49.631Z,3.70
2018-11-28T05:17:17.953Z,3.70
2018-11-28T05:19:45.868Z,3.70
2018-11-28T05:22:13.764Z,3.70
2018-11-28T05:24:41.475Z,3.70
2018-11-28T05:27:09.530Z,3.80
2018-11-28T05:29:37.291Z,3.90
2018-11-28T05:32:06.158Z,3.90
2018-11-28T05:34:33.967Z,3.90
2018-11-28T05:37:01.628Z,3.90
2018-11-28T05:39:29.260Z,3.90
2018-11-28T05:41:57.456Z,3.90
2018-11-28T05:44:25.218Z,3.90
2018-11-28T05:46:53.500Z,3.90
2018-11-28T05:49:21.176Z,4.00
2018-11-28T05:51:49.493Z,4.00
2018-11-28T05:54:17.116Z,4.00
2018-11-28T05:56:44.738Z,4.00
2018-11-28T05:59:12.356Z,4.10
2018-11-28T06:01:40.612Z,4.00
2018-11-28T06:04:08.828Z,4.00
2018-11-28T06:06:36.490Z,4.00
2018-11-28T06:09:06.871Z,3.90
2018-11-28T06:11:34.641Z,3.90
2018-11-28T06:14:02.398Z,3.90
2018-11-28T06:16:30.401Z,3.90
2018-11-28T06:18:58.219Z,3.90
2018-11-28T06:21:26.044Z,3.90
2018-11-28T06:23:53.779Z,3.90
2018-11-28T06:26:21.930Z,3.90
2018-11-28T06:28:49.914Z,3.80
2018-11-28T06:31:18.180Z,3.90
2018-11-28T06:33:45.914Z,3.90
2018-11-28T06:36:13.619Z,3.90
2018-11-28T06:38:42.536Z,3.90
2018-11-28T06:41:10.565Z,4.00
2018-11-28T06:43:39.574Z,4.00
2018-11-28T06:46:07.225Z,4.00
2018-11-28T06:48:35.479Z,4.00
2018-11-28T06:51:03.179Z,4.00
2018-11-28T06:53:30.950Z,4.10
2018-11-28T06:55:58.803Z,4.20
2018-11-28T06:58:26.600Z,4.10
2018-11-28T07:00:54.980Z,4.20
2018-11-28T07:03:22.618Z,4.10
2018-11-28T07:05:51.095Z,4.10
2018-11-28T07:08:19.005Z,4.00
2018-11-28T07:10:48.795Z,3.90
2018-11-28T07:13:16.499Z,3.80
2018-11-28T07:15:44.157Z,3.90
2018-11-28T07:18:23.060Z,3.90
2018-11-28T07:20:51.581Z,3.90
2018-11-28T07:23:19.504Z,3.80
2018-11-28T07:25:47.284Z,3.80
2018-11-28T07:28:15.137Z,3.80
2018-11-28T07:30:42.756Z,3.80
2018-11-28T07:33:10.522Z,3.80
2018-11-28T07:35:42.483Z,3.90
2018-11-28T07:38:10.254Z,3.90
2018-11-28T07:40:40.001Z,3.90
2018-11-28T07:43:09.081Z,4.00
2018-11-28T07:45:38.327Z,4.10
2018-11-28T07:48:06.428Z,4.20
2018-11-28T07:50:34.081Z,4.30
2018-11-28T07:53:01.836Z,4.40
2018-11-28T07:55:30.162Z,4.40
2018-11-28T07:57:57.855Z,4.40
2018-11-28T08:00:25.497Z,4.40
2018-11-28T08:02:53.293Z,4.40
2018-11-28T08:05:21.094Z,4.40
2018-11-28T08:07:49.069Z,4.40
2018-11-28T08:10:21.179Z,4.30
2018-11-28T08:12:50.293Z,4.30
2018-11-28T08:15:18.021Z,4.30
2018-11-28T08:17:46.522Z,4.30
2018-11-28T08:20:14.863Z,4.30
2018-11-28T08:22:42.528Z,4.30
2018-11-28T08:25:13.583Z,4.30
2018-11-28T08:27:42.704Z,4.30
2018-11-28T08:30:20.538Z,4.30
2018-11-28T08:32:48.514Z,4.40
2018-11-28T08:35:16.338Z,4.40
2018-11-28T08:37:44.213Z,4.30
2018-11-28T08:40:13.311Z,4.40
2018-11-28T08:42:41.066Z,4.50
2018-11-28T08:45:11.944Z,4.50
2018-11-28T08:47:39.610Z,4.60
2018-11-28T08:50:10.991Z,4.60
2018-11-28T08:52:38.679Z,4.60
2018-11-28T08:55:07.870Z,4.70
2018-11-28T08:57:35.609Z,4.70
2018-11-28T09:00:05.657Z,4.60
2018-11-28T09:02:33.601Z,4.50
2018-11-28T09:05:01.299Z,4.50
2018-11-28T09:07:29.550Z,4.60
2018-11-28T09:09:57.516Z,4.60
2018-11-28T09:12:25.509Z,4.60
2018-11-28T09:14:53.220Z,4.60
2018-11-28T09:17:20.908Z,4.60
2018-11-28T09:19:48.541Z,4.80
2018-11-28T09:22:16.980Z,4.70
2018-11-28T09:24:44.955Z,4.70
2018-11-28T09:27:12.567Z,4.70
2018-11-28T09:29:40.261Z,4.60
2018-11-28T09:32:08.014Z,4.60
2018-11-28T09:34:35.686Z,4.80
2018-11-28T09:37:03.365Z,4.80
2018-11-28T09:39:31.805Z,4.90
2018-11-28T09:41:59.450Z,4.90
2018-11-28T09:44:27.577Z,4.90
2018-11-28T09:46:55.197Z,4.90
2018-11-28T09:49:22.886Z,4.90
2018-11-28T09:51:50.684Z,4.80
2018-11-28T09:54:18.328Z,4.80
2018-11-28T09:56:46.281Z,4.80
2018-11-28T09:59:14.032Z,4.70
2018-11-28T10:01:41.821Z,4.70
2018-11-28T10:04:09.520Z,4.70
2018-11-28T10:06:37.193Z,4.70
2018-11-28T10:09:06.987Z,4.90
2018-11-28T10:11:34.659Z,4.80
2018-11-28T10:14:02.526Z,4.80
2018-11-28T10:16:30.210Z,4.90
2018-11-28T10:18:57.899Z,4.90
2018-11-28T10:21:25.720Z,4.80
2018-11-28T10:23:53.429Z,4.70
2018-11-28T10:26:21.429Z,4.70
2018-11-28T10:28:49.148Z,4.70
2018-11-28T10:31:17.045Z,4.70
2018-11-28T10:33:44.841Z,4.70
2018-11-28T10:36:12.592Z,4.60
2018-11-28T10:38:41.150Z,4.70
2018-11-28T10:41:08.917Z,4.70
2018-11-28T10:43:36.603Z,4.80
2018-11-28T10:46:04.540Z,4.80
2018-11-28T10:48:32.434Z,4.80
2018-11-28T10:51:00.216Z,4.90
2018-11-28T10:53:27.922Z,5.20
2018-11-28T10:55:55.940Z,5.30
2018-11-28T10:58:23.688Z,5.30
2018-11-28T11:00:56.941Z,5.20
2018-11-28T11:03:30.440Z,5.20
2018-11-28T11:06:03.125Z,5.40
2018-11-28T11:08:36.556Z,5.40
2018-11-28T11:11:09.997Z,5.40
2018-11-28T11:13:42.011Z,5.40
2018-11-28T11:16:10.881Z,5.60
2018-11-28T11:18:39.187Z,5.60
2018-11-28T11:21:06.867Z,5.50
2018-11-28T11:23:34.997Z,5.40
2018-11-28T11:26:02.807Z,5.40
2018-11-28T11:28:30.460Z,5.50
2018-11-28T11:30:58.215Z,5.50
2018-11-28T11:33:25.878Z,5.70
2018-11-28T11:35:53.589Z,5.70
2018-11-28T11:38:22.745Z,5.80
2018-11-28T11:40:50.536Z,5.90
2018-11-28T11:43:18.472Z,5.90
2018-11-28T11:45:47.064Z,5.80
2018-11-28T11:48:15.001Z,6.00
2018-11-28T11:50:42.763Z,6.00
2018-11-28T11:53:11.309Z,5.70
2018-11-28T11:55:39.079Z,6.00
2018-11-28T11:58:07.160Z,5.90
2018-11-28T12:00:36.273Z,5.90
2018-11-28T12:03:08.831Z,5.80
2018-11-28T12:05:36.966Z,5.80
2018-11-28T12:08:05.762Z,5.70
2018-11-28T12:10:33.412Z,5.80
2018-11-28T12:13:01.254Z,5.80
2018-11-28T12:15:29.240Z,5.80
2018-11-28T12:17:57.177Z,5.80
2018-11-28T12:20:33.731Z,5.90
2018-11-28T12:23:01.395Z,5.90
2018-11-28T12:25:29.055Z,6.10
2018-11-28T12:27:57.927Z,6.20
2018-11-28T12:30:25.627Z,6.20
2018-11-28T12:32:53.458Z,6.20
2018-11-28T12:35:21.377Z,6.20
2018-11-28T12:37:49.412Z,6.20
2018-11-28T12:40:17.276Z,6.10
2018-11-28T12:42:48.052Z,6.20
2018-11-28T12:45:16.905Z,6.10
2018-11-28T12:47:45.512Z,6.00
2018-11-28T12:50:22.472Z,5.90
2018-11-28T12:52:51.164Z,5.90
2018-11-28T12:55:19.895Z,6.00
2018-11-28T12:57:47.818Z,6.20
2018-11-28T13:00:17.775Z,6.20
2018-11-28T13:02:52.648Z,6.40
2018-11-28T13:05:21.943Z,6.50
2018-11-28T13:07:49.740Z,6.50
2018-11-28T13:10:22.875Z,6.60
2018-11-28T13:12:50.968Z,6.60
2018-11-28T13:15:19.655Z,6.50
2018-11-28T13:17:47.416Z,6.50
2018-11-28T13:20:17.196Z,6.30
2018-11-28T13:22:45.865Z,6.40
2018-11-28T13:25:14.773Z,6.40
2018-11-28T13:27:42.789Z,6.40
2018-11-28T13:30:13.463Z,6.60
2018-11-28T13:32:41.871Z,6.70
2018-11-28T13:35:10.424Z,6.80
2018-11-28T13:37:38.178Z,6.80
2018-11-28T13:40:10.238Z,6.70
2018-11-28T13:42:37.978Z,6.70
2018-11-28T13:45:09.921Z,6.60
2018-11-28T13:47:37.785Z,6.60
2018-11-28T13:50:07.347Z,6.50
2018-11-28T13:52:35.188Z,6.40
2018-11-28T13:55:37.334Z,6.40
2018-11-28T13:57:31.591Z,6.50
2018-11-28T13:59:59.451Z,6.50
2018-11-28T14:02:27.307Z,6.50
2018-11-28T14:04:55.016Z,6.50
2018-11-28T14:07:23.480Z,6.50
2018-11-28T14:09:51.541Z,6.50
2018-11-28T14:12:19.329Z,6.50
2018-11-28T14:14:47.332Z,6.50
2018-11-28T14:17:15.127Z,6.50
2018-11-28T14:19:44.944Z,6.50
2018-11-28T14:22:12.839Z,6.50
2018-11-28T14:24:40.618Z,6.50
2018-11-28T14:27:08.271Z,6.70
2018-11-28T14:29:35.918Z,6.70
2018-11-28T14:32:03.686Z,6.70
2018-11-28T14:34:31.655Z,6.70
2018-11-28T14:37:00.067Z,6.70
2018-11-28T14:39:27.781Z,6.70
2018-11-28T14:41:55.447Z,6.70
2018-11-28T14:44:23.216Z,6.60
2018-11-28T14:46:51.012Z,6.60
2018-11-28T14:49:18.868Z,6.60
2018-11-28T14:51:46.630Z,6.60
2018-11-28T14:54:14.752Z,6.60
2018-11-28T14:56:42.472Z,6.60
2018-11-28T14:59:10.424Z,6.60
2018-11-28T15:01:38.341Z,6.50
2018-11-28T15:04:06.551Z,6.60
2018-11-28T15:06:56.954Z,6.60
2018-11-28T15:09:32.002Z,6.60
2018-11-28T15:11:59.754Z,6.60
2018-11-28T15:14:28.016Z,6.60
2018-11-28T15:16:55.733Z,6.60
2018-11-28T15:19:23.484Z,6.50
2018-11-28T15:21:51.170Z,6.60
2018-11-28T15:24:18.917Z,6.50
2018-11-28T15:26:46.797Z,6.50
2018-11-28T15:29:14.549Z,6.50
2018-11-28T15:31:42.332Z,6.50
2018-11-28T15:34:10.039Z,6.50
2018-11-28T15:36:37.987Z,6.50
2018-11-28T15:39:08.092Z,6.50
2018-11-28T15:41:36.460Z,6.60
2018-11-28T15:44:04.749Z,6.60
2018-11-28T15:46:33.884Z,6.50
2018-11-28T15:49:02.052Z,6.50
2018-11-28T15:51:29.854Z,6.50
2018-11-28T15:53:57.752Z,6.50
2018-11-28T15:56:25.404Z,6.50
2018-11-28T15:58:53.037Z,6.50
2018-11-28T16:01:20.729Z,6.50
2018-11-28T16:03:48.442Z,6.50
2018-11-28T16:06:16.079Z,6.50
2018-11-28T16:08:43.813Z,6.50
2018-11-28T16:11:14.052Z,6.50
2018-11-28T16:13:41.815Z,6.50
2018-11-28T16:16:09.589Z,6.40
2018-11-28T16:18:37.355Z,6.50
2018-11-28T16:21:05.663Z,6.40
2018-11-28T16:23:34.101Z,6.40
2018-11-28T16:26:01.817Z,6.50
2018-11-28T16:28:29.682Z,6.50
2018-11-28T16:30:57.413Z,6.50
2018-11-28T16:33:25.211Z,6.40
2018-11-28T16:35:53.715Z,6.40
2018-11-28T16:38:21.680Z,6.40
2018-11-28T16:40:54.529Z,6.40
2018-11-28T16:43:22.570Z,6.40
2018-11-28T16:45:50.367Z,6.40
2018-11-28T16:48:17.999Z,6.40
2018-11-28T16:50:46.004Z,6.40
2018-11-28T16:53:13.662Z,6.40
2018-11-28T16:55:42.652Z,6.40
2018-11-28T16:58:10.477Z,6.30
2018-11-28T17:00:40.502Z,6.30
2018-11-28T17:03:08.376Z,6.30
2018-11-28T17:05:36.668Z,6.30
2018-11-28T17:08:05.590Z,6.30
2018-11-28T17:13:07.802Z,6.30
2018-11-28T17:15:36.920Z,6.30
2018-11-28T17:18:05.483Z,6.30
2018-11-28T17:20:33.387Z,6.30
2018-11-28T17:23:01.198Z,6.30
2018-11-28T17:25:31.370Z,6.30
2018-11-28T17:27:59.691Z,6.20
2018-11-28T17:30:28.765Z,6.20
2018-11-28T17:32:56.940Z,6.20
2018-11-28T17:35:24.699Z,6.20
2018-11-28T17:37:52.874Z,6.20
2018-11-28T17:40:24.829Z,6.20
2018-11-28T17:42:53.659Z,6.20
2018-11-28T17:45:22.113Z,6.20
2018-11-28T17:47:50.486Z,6.10
2018-11-28T17:50:19.344Z,6.10
2018-11-28T17:52:52.912Z,6.10
2018-11-28T17:55:20.702Z,6.10
2018-11-28T17:57:48.846Z,6.10
2018-11-28T18:00:19.124Z,6.10
2018-11-28T18:02:47.135Z,6.20
2018-11-28T18:05:15.743Z,6.20
2018-11-28T18:07:43.728Z,6.20
2018-11-28T18:10:19.458Z,6.10
2018-11-28T18:12:58.870Z,6.10
2018-11-28T18:15:27.039Z,6.10
2018-11-28T18:17:55.927Z,6.10
2018-11-28T18:20:23.899Z,6.10
2018-11-28T18:22:51.707Z,6.00
2018-11-28T18:25:20.567Z,6.00
2018-11-28T18:27:48.403Z,6.00
2018-11-28T18:30:17.434Z,5.90
2018-11-28T18:32:45.109Z,5.90
2018-11-28T18:35:12.891Z,5.90
2018-11-28T18:37:41.941Z,5.90
2018-11-28T18:40:11.603Z,5.80
2018-11-28T18:42:40.053Z,5.90
2018-11-28T18:45:11.651Z,5.90
2018-11-28T18:47:39.437Z,5.90
2018-11-28T18:50:08.873Z,5.90
2018-11-28T18:52:36.803Z,5.90
2018-11-28T18:55:06.982Z,5.90
2018-11-28T18:57:34.741Z,5.80
2018-11-28T19:00:03.636Z,5.80
2018-11-28T19:02:31.576Z,5.80
2018-11-28T19:04:59.572Z,5.80
2018-11-28T19:07:27.595Z,5.80
2018-11-28T19:09:55.856Z,5.70
2018-11-28T19:12:23.720Z,5.70
2018-11-28T19:14:51.536Z,5.60
2018-11-28T19:17:20.381Z,5.70
2018-11-28T19:19:48.250Z,5.60
2018-11-28T19:22:16.854Z,5.60
2018-11-28T19:24:44.905Z,5.50
2018-11-28T19:27:12.713Z,5.50
2018-11-28T19:29:40.694Z,5.50
2018-11-28T19:32:08.410Z,5.50
2018-11-28T19:34:36.212Z,5.50
2018-11-28T19:37:04.235Z,5.40
2018-11-28T19:39:32.443Z,5.40
2018-11-28T19:42:00.678Z,5.40
2018-11-28T19:44:34.752Z,5.40
2018-11-28T19:47:02.674Z,5.40
2018-11-28T19:49:30.840Z,5.30
2018-11-28T19:51:59.765Z,5.20
2018-11-28T19:54:28.240Z,5.10
2018-11-28T19:56:56.020Z,5.00
2018-11-28T19:59:23.956Z,4.90
2018-11-28T20:01:51.744Z,4.80
2018-11-28T20:04:19.502Z,4.80
2018-11-28T20:06:47.429Z,4.70
2018-11-28T20:09:20.619Z,4.60
2018-11-28T20:11:48.633Z,4.60
2018-11-28T20:14:16.878Z,4.60
2018-11-28T20:16:44.645Z,4.60
2018-11-28T20:19:17.526Z,4.60
2018-11-28T20:21:41.193Z,4.60
2018-11-28T20:24:09.236Z,4.60
2018-11-28T20:26:37.794Z,4.70
2018-11-28T20:29:06.655Z,4.60
2018-11-28T20:31:34.967Z,4.70
2018-11-28T20:34:02.754Z,4.60
2018-11-28T20:36:30.529Z,4.60
2018-11-28T20:38:59.185Z,4.60
2018-11-28T20:41:27.412Z,4.70
2018-11-28T20:43:55.294Z,4.50
2018-11-28T20:46:23.309Z,4.40
2018-11-28T20:48:51.894Z,4.20
2018-11-28T20:51:19.649Z,4.20
2018-11-28T20:53:47.850Z,4.20
2018-11-28T20:56:15.848Z,4.20
2018-11-28T20:58:43.688Z,4.20
2018-11-28T21:01:11.822Z,4.20
2018-11-28T21:03:40.455Z,4.20
2018-11-28T21:06:08.463Z,4.10
2018-11-28T21:08:36.311Z,4.10
2018-11-28T21:11:04.949Z,4.10
2018-11-28T21:13:32.633Z,4.00
2018-11-28T21:16:06.960Z,3.90
2018-11-28T21:18:35.039Z,3.90
2018-11-28T21:21:03.591Z,3.90
2018-11-28T21:23:31.558Z,3.80
2018-11-28T21:25:59.651Z,3.90
2018-11-28T21:28:27.677Z,3.80
2018-11-28T21:30:55.571Z,3.80
2018-11-28T21:33:23.597Z,3.90
2018-11-28T21:35:52.218Z,3.90
2018-11-28T21:38:20.272Z,3.90
2018-11-28T21:40:48.306Z,4.00
2018-11-28T21:43:16.567Z,4.00
2018-11-28T21:45:44.438Z,4.00
2018-11-28T21:48:12.917Z,4.00
2018-11-28T21:50:40.981Z,4.00
2018-11-28T21:53:09.226Z,4.00
2018-11-28T21:55:37.447Z,4.00
2018-11-28T21:58:05.535Z,4.00
2018-11-28T22:00:34.968Z,4.00
2018-11-28T22:03:02.743Z,4.00
2018-11-28T22:05:30.392Z,4.00
2018-11-28T22:07:58.272Z,4.00
2018-11-28T22:10:26.606Z,4.00
2018-11-28T22:12:55.214Z,4.00
2018-11-28T22:15:23.022Z,4.00
2018-11-28T22:17:54.860Z,3.90
2018-11-28T22:20:23.808Z,3.90
2018-11-28T22:22:51.988Z,3.90
2018-11-28T22:25:23.867Z,3.90
2018-11-28T22:27:52.341Z,3.90
2018-11-28T22:30:27.889Z,3.90
2018-11-28T22:32:56.097Z,3.80
2018-11-28T22:35:23.924Z,3.80
2018-11-28T22:37:51.790Z,4.00
2018-11-28T22:40:21.907Z,3.90
2018-11-28T22:42:56.469Z,3.90
2018-11-28T22:45:26.632Z,3.90
2018-11-28T22:47:54.411Z,3.90
2018-11-28T22:50:22.459Z,3.80
2018-11-28T22:52:51.074Z,3.80
2018-11-28T22:55:18.971Z,3.80
2018-11-28T22:57:46.679Z,3.80
2018-11-28T23:00:22.894Z,3.80
2018-11-28T23:02:52.906Z,3.80
2018-11-28T23:05:21.839Z,3.80
2018-11-28T23:07:49.650Z,3.80
2018-11-28T23:10:17.978Z,3.90
2018-11-28T23:12:46.095Z,3.90
2018-11-28T23:15:14.248Z,4.00
2018-11-28T23:17:42.911Z,4.00
2018-11-28T23:20:10.880Z,4.00
2018-11-28T23:22:39.157Z,4.10
2018-11-28T23:25:10.163Z,4.20
2018-11-28T23:27:38.121Z,4.20
2018-11-28T23:30:11.043Z,4.20
2018-11-28T23:32:38.962Z,4.30
2018-11-28T23:35:08.338Z,4.30
2018-11-28T23:37:36.426Z,4.20
2018-11-28T23:40:09.531Z,4.10
2018-11-28T23:42:38.091Z,4.20
2018-11-28T23:45:08.043Z,4.20
2018-11-28T23:47:36.389Z,4.20
2018-11-28T23:50:07.333Z,4.20
2018-11-28T23:55:21.433Z,4.20
2018-11-28T23:57:50.007Z,4.20
